Time;durP1;ratioP1;P1;durP2;ratioP2;P2;SDS_P1;SDS_P2;PMS_P1;PMS_P2;Temp;Humidity;BMP_temperature;BMP_pressure;BME280_temperature;BME280_humidity;BME280_pressure;Samples;Min_cycle;Max_cycle;Signal;HPM_P1;HPM_P2
2022/06/14 00:02:51;;;;;;;0.00;0.00;;;18.70;85.00;;;;;;4930542;29;20046;-76
2022/06/14 00:05:16;;;;;;;0.00;0.00;;;18.60;85.30;;;;;;4925037;29;20052;-76
2022/06/14 00:07:42;;;;;;;0.00;0.00;;;18.60;85.20;;;;;;4927027;29;20028;-76
2022/06/14 00:10:08;;;;;;;0.00;0.00;;;18.60;84.40;;;;;;4932934;29;20020;-76
2022/06/14 00:12:35;;;;;;;0.00;0.00;;;18.60;84.50;;;;;;4926928;29;20055;-76
2022/06/14 00:15:01;;;;;;;0.00;0.00;;;18.60;84.70;;;;;;4929862;29;20322;-76
2022/06/14 00:17:26;;;;;;;0.00;0.00;;;18.60;84.60;;;;;;4908526;29;20303;-76
2022/06/14 00:19:52;;;;;;;0.00;0.00;;;18.60;84.90;;;;;;4932470;29;20020;-74
2022/06/14 00:22:17;;;;;;;0.00;0.00;;;18.60;85.20;;;;;;4922106;29;20072;-75
2022/06/14 00:24:43;;;;;;;0.00;0.00;;;18.60;85.00;;;;;;4918923;29;20024;-75
2022/06/14 00:27:09;;;;;;;0.00;0.00;;;18.60;83.60;;;;;;4929633;29;20020;-76
2022/06/14 00:29:34;;;;;;;0.00;0.00;;;18.60;84.40;;;;;;4919424;29;20043;-75
2022/06/14 00:32:00;;;;;;;0.00;0.00;;;18.60;83.40;;;;;;4920487;29;20076;-79
2022/06/14 00:34:26;;;;;;;0.00;0.00;;;18.60;83.20;;;;;;4929663;29;20207;-77
2022/06/14 00:36:56;;;;;;;0.00;0.00;;;18.50;82.70;;;;;;4930384;29;20369;-76
2022/06/14 00:39:22;;;;;;;0.00;0.00;;;18.50;82.60;;;;;;4918240;29;20039;-75
2022/06/14 00:41:52;;;;;;;0.00;0.00;;;18.50;82.60;;;;;;4926942;29;20048;-76
2022/06/14 00:44:27;;;;;;;0.00;0.00;;;18.50;83.00;;;;;;4926803;29;20039;-76
2022/06/14 00:47:04;;;;;;;0.00;0.00;;;18.50;83.00;;;;;;4926170;29;20306;-77
2022/06/14 00:49:53;;;;;;;0.00;0.00;;;18.40;82.60;;;;;;4924568;29;20024;-76
2022/06/14 00:52:36;;;;;;;0.00;0.00;;;18.40;83.20;;;;;;4921534;29;20034;-76
2022/06/14 00:55:13;;;;;;;0.00;0.00;;;18.40;83.40;;;;;;4908430;29;20103;-77
2022/06/14 00:57:46;;;;;;;0.00;0.00;;;18.40;83.70;;;;;;4926645;29;20091;-77
2022/06/14 01:00:17;;;;;;;0.00;0.00;;;18.30;82.60;;;;;;4909434;29;20028;-78
2022/06/14 01:02:50;;;;;;;0.00;0.00;;;18.30;83.30;;;;;;4926417;29;20032;-77
2022/06/14 01:06:06;;;;;;;0.00;0.00;;;18.20;83.80;;;;;;4933434;29;20389;-76
2022/06/14 01:08:40;;;;;;;0.00;0.00;;;18.30;84.10;;;;;;4928501;29;20042;-77
2022/06/14 01:11:10;;;;;;;0.00;0.00;;;18.20;84.40;;;;;;4923309;29;20059;-77
2022/06/14 01:13:37;;;;;;;0.00;0.00;;;18.20;84.60;;;;;;4927308;29;20073;-77
2022/06/14 01:16:03;;;;;;;0.00;0.00;;;18.20;84.00;;;;;;4912266;29;20035;-76
2022/06/14 01:18:29;;;;;;;0.00;0.00;;;18.10;84.20;;;;;;4924704;29;20635;-77
2022/06/14 01:20:55;;;;;;;0.00;0.00;;;18.10;84.10;;;;;;4918655;29;20024;-76
2022/06/14 01:23:22;;;;;;;0.00;0.00;;;18.10;83.50;;;;;;4926304;29;20080;-76
2022/06/14 01:25:52;;;;;;;0.00;0.00;;;18.00;83.70;;;;;;4920919;29;20295;-76
2022/06/14 01:28:23;;;;;;;0.00;0.00;;;18.00;84.40;;;;;;4926019;29;20051;-77
2022/06/14 01:30:51;;;;;;;0.00;0.00;;;18.00;84.40;;;;;;4921139;29;20078;-78
2022/06/14 01:33:24;;;;;;;;;;;18.00;84.40;;;;;;4908491;29;20027;-76
2022/06/14 01:35:57;;;;;;;0.00;0.00;;;17.90;84.50;;;;;;4927705;29;20243;-76
2022/06/14 01:38:24;;;;;;;0.00;0.00;;;17.90;84.50;;;;;;4907564;29;20028;-76
2022/06/14 01:40:55;;;;;;;0.00;0.00;;;17.90;84.70;;;;;;4924090;29;20232;-77
2022/06/14 01:43:44;;;;;;;0.00;0.00;;;17.90;85.50;;;;;;4918386;29;20281;-76
2022/06/14 01:46:26;;;;;;;0.00;0.00;;;17.90;85.60;;;;;;4910664;29;20199;-76
2022/06/14 01:52:11;;;;;;;0.00;0.00;;;17.90;86.20;;;;;;4923772;29;20092;-76
2022/06/14 01:55:12;;;;;;;0.00;0.00;;;17.70;86.00;;;;;;4929573;29;20032;-76
2022/06/14 01:58:04;;;;;;;0.00;0.00;;;17.80;86.20;;;;;;4914140;29;20334;-77
2022/06/14 02:00:35;;;;;;;0.00;0.00;;;17.80;85.50;;;;;;4911053;29;20035;-77
2022/06/14 02:06:18;;;;;;;0.00;0.00;;;17.80;86.00;;;;;;4924980;29;20061;-77
2022/06/14 02:09:01;;;;;;;0.00;0.00;;;17.80;86.20;;;;;;4926472;29;20028;-77
2022/06/14 02:11:32;;;;;;;0.00;0.00;;;17.70;85.10;;;;;;4923869;29;20028;-77
2022/06/14 02:14:10;;;;;;;0.00;0.00;;;17.70;85.20;;;;;;4921351;29;20330;-76
2022/06/14 02:17:17;;;;;;;0.00;0.00;;;17.70;85.50;;;;;;4910512;29;20028;-77
2022/06/14 02:19:57;;;;;;;0.00;0.00;;;17.60;86.30;;;;;;4894523;29;20146;-77
2022/06/14 02:22:35;;;;;;;0.00;0.00;;;17.60;85.80;;;;;;4900558;29;20064;-77
2022/06/14 02:25:14;;;;;;;0.00;0.00;;;17.60;85.70;;;;;;4930400;29;20311;-78
2022/06/14 02:28:01;;;;;;;0.00;0.00;;;17.60;85.70;;;;;;4918724;29;20137;-79
2022/06/14 02:30:34;;;;;;;0.00;0.00;;;17.50;84.30;;;;;;4908140;29;20024;-79
2022/06/14 02:33:28;;;;;;;0.00;0.00;;;17.50;84.60;;;;;;4926553;29;20051;-78
2022/06/14 02:36:00;;;;;;;0.00;0.00;;;17.40;84.60;;;;;;4907663;29;20083;-78
2022/06/14 02:38:33;;;;;;;0.00;0.00;;;17.40;85.00;;;;;;4924557;29;20118;-77
2022/06/14 02:41:16;;;;;;;0.00;0.00;;;17.40;85.10;;;;;;4931186;29;20180;-77
2022/06/14 02:44:14;;;;;;;0.00;0.00;;;17.40;84.90;;;;;;4910011;29;20047;-77
2022/06/14 02:46:55;;;;;;;0.00;0.00;;;17.40;85.10;;;;;;4920228;29;20024;-77
2022/06/14 02:49:30;;;;;;;0.00;0.00;;;17.30;84.80;;;;;;4929394;29;20474;-78
2022/06/14 02:52:01;;;;;;;0.00;0.00;;;17.40;85.10;;;;;;4928808;29;20033;-78
2022/06/14 02:54:29;;;;;;;0.00;0.00;;;17.30;85.90;;;;;;4912151;29;20299;-79
2022/06/14 02:57:13;;;;;;;0.00;0.00;;;17.40;84.90;;;;;;4915337;29;20064;-78
2022/06/14 02:59:48;;;;;;;0.00;0.00;;;17.40;85.40;;;;;;4929108;29;20052;-78
2022/06/14 03:02:50;;;;;;;0.00;0.00;;;17.40;85.60;;;;;;4934183;29;20040;-77
2022/06/14 03:05:51;;;;;;;0.00;0.00;;;17.30;84.70;;;;;;4917289;29;20106;-79
2022/06/14 03:08:23;;;;;;;0.00;0.00;;;17.30;85.70;;;;;;4922916;29;20031;-77
2022/06/14 03:11:07;;;;;;;0.00;0.00;;;17.30;84.80;;;;;;4946199;29;20067;-76
2022/06/14 03:13:35;;;;;;;0.00;0.00;;;17.30;84.60;;;;;;4933134;29;20035;-78
2022/06/14 03:16:06;;;;;;;;;;;17.40;85.20;;;;;;4949547;29;20030;-76
2022/06/14 03:18:52;;;;;;;0.00;0.00;;;17.40;85.70;;;;;;4951377;29;19907;-77
2022/06/14 03:21:35;;;;;;;0.00;0.00;;;17.40;86.40;;;;;;4950254;29;20078;-76
2022/06/14 03:24:18;;;;;;;0.00;0.00;;;17.30;84.70;;;;;;4949112;29;20031;-78
2022/06/14 03:27:07;;;;;;;0.00;0.00;;;17.30;86.00;;;;;;4952534;29;20044;-78
2022/06/14 03:30:03;;;;;;;0.00;0.00;;;17.30;85.20;;;;;;4937432;29;20039;-77
2022/06/14 03:32:45;;;;;;;0.00;0.00;;;17.30;85.10;;;;;;4940141;29;20055;-78
2022/06/14 03:35:26;;;;;;;0.00;0.00;;;17.30;84.30;;;;;;4946553;29;20027;-78
2022/06/14 03:37:53;;;;;;;0.00;0.00;;;17.30;84.80;;;;;;4940132;29;20023;-78
2022/06/14 03:40:22;;;;;;;0.00;0.00;;;17.30;84.60;;;;;;4946195;29;20062;-77
2022/06/14 03:42:48;;;;;;;0.00;0.00;;;17.30;84.00;;;;;;4948918;29;20023;-77
2022/06/14 03:45:19;;;;;;;0.00;0.00;;;17.30;84.30;;;;;;4945995;29;20031;-77
2022/06/14 03:47:45;;;;;;;0.00;0.00;;;17.30;85.20;;;;;;4929467;28;20164;-78
2022/06/14 03:50:23;;;;;;;0.00;0.00;;;17.30;84.30;;;;;;4945377;29;20024;-77
2022/06/14 03:52:48;;;;;;;;;;;17.20;86.60;;;;;;4945150;29;20075;-77
2022/06/14 03:55:32;;;;;;;0.00;0.00;;;17.30;85.50;;;;;;4947597;29;20119;-78
2022/06/14 03:58:04;;;;;;;0.00;0.00;;;17.20;84.80;;;;;;4940311;29;20122;-78
2022/06/14 04:00:49;;;;;;;0.00;0.00;;;17.20;85.10;;;;;;4953339;29;20078;-78
2022/06/14 04:03:24;;;;;;;0.00;0.00;;;17.20;84.90;;;;;;4947929;29;20083;-78
2022/06/14 04:06:27;;;;;;;0.00;0.00;;;17.30;85.40;;;;;;4950462;29;20055;-80
2022/06/14 04:09:07;;;;;;;0.00;0.00;;;17.20;84.70;;;;;;4930723;29;20039;-76
2022/06/14 04:11:51;;;;;;;0.00;0.00;;;17.30;85.10;;;;;;4949224;29;20038;-76
2022/06/14 04:14:32;;;;;;;0.00;0.00;;;17.30;84.10;;;;;;4927671;29;20203;-76
2022/06/14 04:17:20;;;;;;;0.00;0.00;;;17.20;83.30;;;;;;4938352;29;20098;-76
2022/06/14 04:20:09;;;;;;;0.00;0.00;;;17.30;83.60;;;;;;4930579;29;20341;-77
2022/06/14 04:22:40;;;;;;;0.00;0.00;;;17.30;85.30;;;;;;4949308;29;20110;-77
2022/06/14 04:25:37;;;;;;;0.00;0.00;;;17.30;85.70;;;;;;4927914;29;20019;-76
2022/06/14 04:28:47;;;;;;;0.00;0.00;;;17.30;86.30;;;;;;4950586;29;20024;-77
2022/06/14 04:31:16;;;;;;;0.00;0.00;;;17.30;85.10;;;;;;4882843;29;20060;-77
2022/06/14 04:34:05;;;;;;;0.00;0.00;;;17.40;83.90;;;;;;4931430;29;20057;-76
2022/06/14 04:36:47;;;;;;;0.00;0.00;;;17.40;84.90;;;;;;4899788;29;20062;-77
2022/06/14 04:39:21;;;;;;;0.00;0.00;;;17.40;85.80;;;;;;4937903;29;20024;-79
2022/06/14 04:42:11;;;;;;;0.00;0.00;;;17.40;85.60;;;;;;4950525;29;20027;-77
2022/06/14 04:44:42;;;;;;;0.00;0.00;;;17.40;85.70;;;;;;4933345;29;20027;-77
2022/06/14 04:47:22;;;;;;;0.00;0.00;;;17.40;85.30;;;;;;4939886;29;20311;-76
2022/06/14 04:49:58;;;;;;;0.00;0.00;;;17.40;85.40;;;;;;4939705;29;20023;-77
2022/06/14 04:52:35;;;;;;;0.00;0.00;;;17.50;86.00;;;;;;4927955;29;20031;-76
2022/06/14 04:55:28;;;;;;;0.00;0.00;;;17.50;85.70;;;;;;4949395;28;20170;-77
2022/06/14 04:58:19;;;;;;;0.00;0.00;;;17.50;84.20;;;;;;4948657;28;20297;-76
2022/06/14 05:00:52;;;;;;;0.00;0.00;;;17.50;85.10;;;;;;4945907;29;20042;-77
2022/06/14 05:03:24;;;;;;;0.00;0.00;;;17.60;86.70;;;;;;4946035;28;20055;-77
2022/06/14 05:06:06;;;;;;;0.00;0.00;;;17.60;87.00;;;;;;4947984;29;20058;-74
2022/06/14 05:08:35;;;;;;;0.00;0.00;;;17.60;87.10;;;;;;4951455;29;20028;-74
2022/06/14 05:11:08;;;;;;;0.00;0.00;;;17.60;86.30;;;;;;4948854;29;20019;-74
2022/06/14 05:14:01;;;;;;;0.00;0.00;;;17.60;84.50;;;;;;4943207;29;20019;-74
2022/06/14 05:16:33;;;;;;;0.00;0.00;;;17.60;83.60;;;;;;4945181;29;20023;-75
2022/06/14 05:19:04;;;;;;;0.00;0.00;;;17.70;83.20;;;;;;4943984;29;20031;-74
2022/06/14 05:21:57;;;;;;;0.00;0.00;;;17.70;85.50;;;;;;4945659;29;20243;-75
2022/06/14 05:24:24;;;;;;;0.00;0.00;;;17.70;87.10;;;;;;4943193;29;20345;-74
2022/06/14 05:27:03;;;;;;;0.00;0.00;;;17.70;86.30;;;;;;4944121;29;20034;-75
2022/06/14 05:29:47;;;;;;;0.00;0.00;;;17.70;85.10;;;;;;4930155;29;20267;-75
2022/06/14 05:32:40;;;;;;;0.00;0.00;;;17.70;85.10;;;;;;4939103;29;20026;-75
2022/06/14 05:35:37;;;;;;;0.00;0.00;;;17.80;82.80;;;;;;4929760;29;20027;-76
2022/06/14 05:38:30;;;;;;;0.00;0.00;;;17.80;83.00;;;;;;4928942;29;20052;-74
2022/06/14 05:41:24;;;;;;;0.00;0.00;;;17.80;83.00;;;;;;4938147;29;20028;-75
2022/06/14 05:44:15;;;;;;;0.00;0.00;;;17.80;82.80;;;;;;4927054;29;20532;-75
2022/06/14 05:46:53;;;;;;;0.00;0.00;;;17.90;81.00;;;;;;4934186;29;20071;-74
2022/06/14 05:49:36;;;;;;;0.00;0.00;;;17.90;81.20;;;;;;4924783;29;20015;-76
2022/06/14 05:52:16;;;;;;;0.00;0.00;;;17.90;82.30;;;;;;4942985;29;20031;-75
2022/06/14 05:54:58;;;;;;;0.00;0.00;;;17.90;82.20;;;;;;4935619;29;20362;-75
2022/06/14 05:57:45;;;;;;;0.00;0.00;;;17.90;82.10;;;;;;4941007;29;20042;-75
2022/06/14 06:00:17;;;;;;;0.00;0.00;;;18.00;81.30;;;;;;4947898;29;20055;-77
2022/06/14 06:03:06;;;;;;;0.00;0.00;;;18.00;81.40;;;;;;4946902;29;20094;-77
2022/06/14 06:05:43;;;;;;;0.00;0.00;;;18.00;82.20;;;;;;4938926;29;20054;-76
2022/06/14 06:08:11;;;;;;;0.00;0.00;;;18.10;82.60;;;;;;4926196;29;20016;-76
2022/06/14 06:10:41;;;;;;;0.00;0.00;;;18.30;82.50;;;;;;4912408;29;20162;-74
2022/06/14 06:13:12;;;;;;;0.00;0.00;;;18.60;82.80;;;;;;4930313;29;20042;-75
2022/06/14 06:15:41;;;;;;;0.00;0.00;;;19.10;82.70;;;;;;4925162;29;20068;-76
2022/06/14 06:18:17;;;;;;;0.00;0.00;;;19.60;82.40;;;;;;4907477;29;20067;-74
2022/06/14 06:20:58;;;;;;;0.00;0.00;;;20.20;79.60;;;;;;4924378;29;20082;-75
2022/06/14 06:23:37;;;;;;;0.00;0.00;;;20.80;76.60;;;;;;4918544;29;20042;-75
2022/06/14 06:26:04;;;;;;;0.00;0.00;;;21.30;76.10;;;;;;4906751;29;20020;-74
2022/06/14 06:28:38;;;;;;;0.00;0.00;;;21.80;75.80;;;;;;4923916;29;20074;-78
2022/06/14 06:31:04;;;;;;;0.00;0.00;;;22.20;74.20;;;;;;4922172;29;20076;-75
2022/06/14 06:33:34;;;;;;;0.00;0.00;;;22.70;73.00;;;;;;4907620;29;20032;-79
2022/06/14 06:36:19;;;;;;;0.00;0.00;;;23.10;72.20;;;;;;4911704;29;20390;-75
2022/06/14 06:38:56;;;;;;;0.00;0.00;;;23.50;70.60;;;;;;4925937;29;20152;-75
2022/06/14 06:44:38;;;;;;;0.00;0.00;;;24.00;67.70;;;;;;4927015;29;20053;-78
2022/06/14 06:47:07;;;;;;;0.00;0.00;;;24.30;67.10;;;;;;4927320;29;20022;-74
2022/06/14 06:50:03;;;;;;;0.00;0.00;;;24.60;66.50;;;;;;4916577;29;20334;-75
2022/06/14 06:53:00;;;;;;;0.00;0.00;;;24.80;65.10;;;;;;4916955;29;20114;-74
2022/06/14 06:55:36;;;;;;;0.00;0.00;;;25.20;65.60;;;;;;4928077;29;20019;-73
2022/06/14 06:58:08;;;;;;;0.00;0.00;;;25.50;64.50;;;;;;4905472;29;20094;-75
2022/06/14 07:00:37;;;;;;;0.00;0.00;;;25.80;64.10;;;;;;4920613;29;20134;-75
2022/06/14 07:03:26;;;;;;;0.00;0.00;;;26.00;62.40;;;;;;4911276;29;20031;-78
2022/06/14 07:05:56;;;;;;;0.00;0.00;;;26.40;63.80;;;;;;4924584;29;20316;-76
2022/06/14 07:08:45;;;;;;;0.00;0.00;;;26.70;63.10;;;;;;4921147;29;20032;-75
2022/06/14 07:11:18;;;;;;;0.00;0.00;;;27.00;61.60;;;;;;4923901;29;20034;-75
2022/06/14 07:13:50;;;;;;;0.00;0.00;;;27.20;61.50;;;;;;4912919;29;20063;-75
2022/06/14 07:16:34;;;;;;;0.00;0.00;;;27.30;62.90;;;;;;4927059;29;20016;-75
2022/06/14 07:19:14;;;;;;;0.00;0.00;;;27.40;63.10;;;;;;4917239;29;20028;-74
2022/06/14 07:21:45;;;;;;;0.00;0.00;;;27.50;57.60;;;;;;4927269;29;20027;-78
2022/06/14 07:24:11;;;;;;;0.00;0.00;;;27.30;58.70;;;;;;4908407;29;20337;-74
2022/06/14 07:27:05;;;;;;;0.00;0.00;;;26.90;59.50;;;;;;4927583;29;20092;-74
2022/06/14 07:29:44;;;;;;;0.00;0.00;;;26.20;59.40;;;;;;4919481;29;20073;-80
2022/06/14 07:32:23;;;;;;;0.00;0.00;;;25.60;61.00;;;;;;4910575;29;20326;-77
2022/06/14 07:34:49;;;;;;;0.00;0.00;;;25.00;60.30;;;;;;4926094;29;20040;-75
2022/06/14 07:37:24;;;;;;;0.00;0.00;;;24.60;63.70;;;;;;4930985;29;20032;-76
2022/06/14 07:39:56;;;;;;;0.00;0.00;;;24.30;63.40;;;;;;4922798;29;20299;-76
2022/06/14 07:42:30;;;;;;;0.00;0.00;;;24.00;64.10;;;;;;4929402;29;20044;-78
2022/06/14 07:45:14;;;;;;;0.00;0.00;;;23.90;67.50;;;;;;4932146;29;20054;-76
2022/06/14 07:47:53;;;;;;;0.00;0.00;;;23.70;67.80;;;;;;4939424;29;20266;-75
2022/06/14 07:50:37;;;;;;;0.00;0.00;;;23.60;66.60;;;;;;4932874;29;20032;-75
2022/06/14 07:53:11;;;;;;;0.00;0.00;;;23.60;67.50;;;;;;4935392;29;20078;-76
2022/06/14 07:55:59;;;;;;;0.00;0.00;;;23.70;67.90;;;;;;4931686;29;20032;-76
2022/06/14 07:58:30;;;;;;;0.00;0.00;;;23.80;67.80;;;;;;4922513;29;20038;-76
2022/06/14 08:01:10;;;;;;;0.00;0.00;;;24.10;69.00;;;;;;4933398;29;20031;-79
2022/06/14 08:03:49;;;;;;;0.00;0.00;;;24.60;68.30;;;;;;4924985;29;20216;-76
2022/06/14 08:06:43;;;;;;;0.00;0.00;;;25.10;67.00;;;;;;4943119;29;20136;-76
2022/06/14 08:09:18;;;;;;;0.00;0.00;;;25.80;67.20;;;;;;4949941;29;20029;-76
2022/06/14 08:11:50;;;;;;;0.00;0.00;;;26.70;62.70;;;;;;4941389;29;20086;-78
2022/06/14 08:14:42;;;;;;;0.00;0.00;;;27.40;63.10;;;;;;4950982;29;20046;-76
2022/06/14 08:17:11;;;;;;;0.00;0.00;;;28.20;61.40;;;;;;4947736;29;20135;-76
2022/06/14 08:19:52;;;;;;;0.00;0.00;;;28.90;59.40;;;;;;4948788;29;20043;-76
2022/06/14 08:22:32;;;;;;;0.00;0.00;;;29.00;58.00;;;;;;4944281;29;20123;-78
2022/06/14 08:25:04;;;;;;;0.00;0.00;;;28.50;56.30;;;;;;4931977;29;20306;-76
2022/06/14 08:27:39;;;;;;;0.00;0.00;;;28.10;59.20;;;;;;4948162;29;20254;-80
2022/06/14 08:30:10;;;;;;;0.00;0.00;;;27.90;59.20;;;;;;4946643;28;20031;-76
2022/06/14 08:33:02;;;;;;;0.00;0.00;;;27.80;59.30;;;;;;4929204;29;20028;-76
2022/06/14 08:35:35;;;;;;;0.00;0.00;;;28.30;57.30;;;;;;4930761;29;20027;-76
2022/06/14 08:38:10;;;;;;;0.00;0.00;;;28.50;57.80;;;;;;4928244;29;20055;-78
2022/06/14 08:41:10;;;;;;;0.00;0.00;;;27.70;55.30;;;;;;4943904;29;20075;-77
2022/06/14 08:43:44;;;;;;;0.00;0.00;;;26.80;58.50;;;;;;4947569;28;20059;-76
2022/06/14 08:46:25;;;;;;;0.00;0.00;;;26.60;58.80;;;;;;4944794;29;20031;-79
2022/06/14 08:49:28;;;;;;;0.00;0.00;;;26.60;59.80;;;;;;4949308;29;20107;-79
2022/06/14 08:52:14;;;;;;;0.00;0.00;;;27.40;60.80;;;;;;4937631;29;20272;-77
2022/06/14 08:54:52;;;;;;;0.00;0.00;;;28.00;57.90;;;;;;4903977;29;20617;-76
2022/06/14 08:57:24;;;;;;;0.00;0.00;;;28.70;57.60;;;;;;4939662;29;20067;-76
2022/06/14 09:00:29;;;;;;;0.00;0.00;;;29.50;57.20;;;;;;4947803;28;20058;-74
2022/06/14 09:03:03;;;;;;;0.00;0.00;;;30.40;54.80;;;;;;4947554;29;20042;-77
2022/06/14 09:05:44;;;;;;;0.00;0.00;;;31.50;56.80;;;;;;4936627;29;20223;-77
2022/06/14 09:08:53;;;;;;;0.00;0.00;;;32.00;55.70;;;;;;4925256;29;20267;-76
2022/06/14 09:11:18;;;;;;;0.00;0.00;;;30.80;49.80;;;;;;4878530;29;20032;-76
2022/06/14 09:14:21;;;;;;;0.00;0.00;;;29.60;53.80;;;;;;4909710;29;20028;-76
2022/06/14 09:17:06;;;;;;;0.00;0.00;;;30.10;52.90;;;;;;4910794;29;20023;-76
2022/06/14 09:19:56;;;;;;;0.00;0.00;;;30.90;54.90;;;;;;4928210;29;20031;-75
2022/06/14 09:22:51;;;;;;;0.00;0.00;;;32.20;54.20;;;;;;4927806;29;20043;-77
2022/06/14 09:25:35;;;;;;;0.00;0.00;;;33.00;50.10;;;;;;4903554;29;20024;-78
2022/06/14 09:28:20;;;;;;;0.00;0.00;;;32.50;50.10;;;;;;4927849;29;20273;-77
2022/06/14 09:31:12;;;;;;;0.00;0.00;;;33.30;52.30;;;;;;4911836;29;20028;-77
2022/06/14 09:33:54;;;;;;;0.00;0.00;;;34.60;50.30;;;;;;4914855;29;20035;-77
2022/06/14 09:36:32;;;;;;;0.00;0.00;;;35.70;48.00;;;;;;4918296;29;20032;-77
2022/06/14 09:39:18;;;;;;;0.00;0.00;;;36.80;51.30;;;;;;4912720;29;20313;-77
2022/06/14 09:41:47;;;;;;;0.00;0.00;;;36.90;46.60;;;;;;4905143;29;20099;-77
2022/06/14 09:44:19;;;;;;;0.00;0.00;;;37.60;46.90;;;;;;4925102;29;20027;-78
2022/06/14 09:47:16;;;;;;;0.00;0.00;;;37.50;45.00;;;;;;4929371;29;20311;-76
2022/06/14 09:50:02;;;;;;;0.00;0.00;;;36.50;47.00;;;;;;4924695;29;20020;-76
2022/06/14 09:52:46;;;;;;;0.00;0.00;;;35.80;44.40;;;;;;4924421;29;20055;-76
2022/06/14 09:55:36;;;;;;;0.00;0.00;;;35.10;45.20;;;;;;4906781;29;20079;-77
2022/06/14 09:58:16;;;;;;;0.00;0.00;;;34.80;47.80;;;;;;4926732;29;20106;-76
2022/06/14 10:00:58;;;;;;;0.00;0.00;;;35.40;46.00;;;;;;4925129;29;20031;-77
2022/06/14 10:03:48;;;;;;;0.00;0.00;;;34.80;45.40;;;;;;4926473;29;20099;-77
2022/06/14 10:06:42;;;;;;;0.00;0.00;;;35.20;45.30;;;;;;4922279;29;20276;-77
2022/06/14 10:09:29;;;;;;;0.00;0.00;;;35.70;47.30;;;;;;4946071;29;20091;-76
2022/06/14 10:12:23;;;;;;;0.00;0.00;;;35.10;45.40;;;;;;4943342;28;20062;-75
2022/06/14 10:15:06;;;;;;;0.00;0.00;;;35.40;45.20;;;;;;4939214;29;20079;-76
2022/06/14 10:18:12;;;;;;;0.00;0.00;;;35.30;44.80;;;;;;4944280;28;20108;-75
2022/06/14 10:20:37;;;;;;;0.00;0.00;;;36.00;45.10;;;;;;4902529;29;20210;-75
2022/06/14 10:23:12;;;;;;;0.00;0.00;;;36.50;46.30;;;;;;4946513;29;20031;-75
2022/06/14 10:28:38;;;;;;;0.00;0.00;;;34.80;43.10;;;;;;4943197;29;20098;-75
2022/06/14 10:31:27;;;;;;;0.00;0.00;;;34.30;45.20;;;;;;4943693;28;20038;-75
2022/06/14 10:34:02;;;;;;;0.00;0.00;;;34.20;45.20;;;;;;4946397;29;20767;-75
2022/06/14 10:36:43;;;;;;;0.00;0.00;;;33.90;45.40;;;;;;4943292;29;20055;-75
2022/06/14 10:39:31;;;;;;;0.00;0.00;;;34.00;46.20;;;;;;4926071;29;20033;-75
2022/06/14 10:42:28;;;;;;;0.00;0.00;;;33.20;42.60;;;;;;4928253;29;20034;-74
2022/06/14 10:45:04;;;;;;;0.00;0.00;;;32.40;47.00;;;;;;4944607;29;20039;-75
2022/06/14 10:48:07;;;;;;;0.00;0.00;;;32.20;46.30;;;;;;4951082;29;20020;-76
2022/06/14 10:51:02;;;;;;;0.00;0.00;;;31.50;44.50;;;;;;4940186;29;20079;-75
2022/06/14 10:53:58;;;;;;;0.00;0.00;;;30.80;45.60;;;;;;4918509;29;20051;-75
2022/06/14 10:57:06;;;;;;;0.00;0.00;;;30.00;47.10;;;;;;4945297;29;20218;-74
2022/06/14 10:59:31;;;;;;;0.00;0.00;;;29.40;48.60;;;;;;4948339;29;20091;-77
2022/06/14 11:02:28;;;;;;;0.00;0.00;;;29.30;50.00;;;;;;4928642;29;20023;-74
2022/06/14 11:05:14;;;;;;;;;;;30.20;48.80;;;;;;4944904;29;20059;-74
2022/06/14 11:08:19;;;;;;;0.00;0.00;;;30.80;48.10;;;;;;4930335;29;19911;-75
2022/06/14 11:10:56;;;;;;;0.00;0.00;;;31.10;49.20;;;;;;4902805;29;20095;-74
2022/06/14 11:13:27;;;;;;;0.00;0.00;;;31.20;46.90;;;;;;4941316;29;20038;-75
2022/06/14 11:16:15;;;;;;;0.00;0.00;;;31.20;47.10;;;;;;4939419;29;20051;-76
2022/06/14 11:18:53;;;;;;;0.00;0.00;;;31.90;49.00;;;;;;4944697;29;20031;-75
2022/06/14 11:22:06;;;;;;;0.00;0.00;;;32.40;47.90;;;;;;4928376;29;20047;-74
2022/06/14 11:25:14;;;;;;;0.00;0.00;;;33.10;47.40;;;;;;4929272;29;20075;-74
2022/06/14 11:28:11;;;;;;;0.00;0.00;;;33.60;45.30;;;;;;4946236;29;20291;-74
2022/06/14 11:30:55;;;;;;;0.00;0.00;;;34.00;45.20;;;;;;4900306;29;20035;-75
2022/06/14 11:33:48;;;;;;;0.00;0.00;;;34.00;42.60;;;;;;4939558;29;20036;-77
2022/06/14 11:36:36;;;;;;;0.00;0.00;;;33.40;43.80;;;;;;4912463;29;20231;-75
2022/06/14 11:39:26;;;;;;;0.00;0.00;;;32.60;43.60;;;;;;4930282;29;20083;-74
2022/06/14 11:41:52;;;;;;;0.00;0.00;;;31.90;45.40;;;;;;4945382;29;20244;-74
2022/06/14 11:44:47;;;;;;;0.00;0.00;;;31.20;45.60;;;;;;4938015;29;20311;-76
2022/06/14 11:47:31;;;;;;;0.00;0.00;;;30.50;47.20;;;;;;4934484;29;20047;-75
2022/06/14 11:50:03;;;;;;;0.00;0.00;;;30.00;48.20;;;;;;4934771;29;20034;-74
2022/06/14 11:52:34;;;;;;;0.00;0.00;;;29.40;48.20;;;;;;4949133;29;20031;-74
2022/06/14 11:55:24;;;;;;;0.00;0.00;;;29.20;51.00;;;;;;4945679;29;20406;-73
2022/06/14 11:58:11;;;;;;;0.00;0.00;;;28.70;49.70;;;;;;4939138;29;20408;-73
2022/06/14 12:00:37;;;;;;;0.00;0.00;;;28.30;50.50;;;;;;4944805;28;20024;-74
2022/06/14 12:03:39;;;;;;;0.00;0.00;;;28.10;51.90;;;;;;4946413;29;20042;-74
2022/06/14 12:06:14;;;;;;;0.00;0.00;;;27.80;52.90;;;;;;4917349;29;20115;-74
2022/06/14 12:09:13;;;;;;;0.00;0.00;;;27.60;51.30;;;;;;4921443;29;20032;-77
2022/06/14 12:12:18;;;;;;;0.00;0.00;;;27.40;52.60;;;;;;4909620;29;20032;-74
2022/06/14 12:14:59;;;;;;;0.00;0.00;;;27.20;51.90;;;;;;4927704;29;20088;-75
2022/06/14 12:17:53;;;;;;;0.00;0.00;;;27.00;55.80;;;;;;4917897;29;20032;-74
2022/06/14 12:20:22;;;;;;;0.00;0.00;;;26.80;55.70;;;;;;4927725;29;20020;-74
2022/06/14 12:22:56;;;;;;;0.00;0.00;;;26.70;55.50;;;;;;4907188;29;20047;-74
2022/06/14 12:28:51;;;;;;;0.00;0.00;;;26.50;55.10;;;;;;4929379;29;20097;-74
2022/06/14 12:31:40;;;;;;;0.00;0.00;;;26.40;55.90;;;;;;4911656;29;20055;-74
2022/06/14 12:34:19;;;;;;;0.00;0.00;;;26.30;54.50;;;;;;4913308;29;20054;-74
2022/06/14 12:37:18;;;;;;;0.00;0.00;;;26.30;53.40;;;;;;4930025;29;20046;-74
2022/06/14 12:40:13;;;;;;;0.00;0.00;;;26.20;54.00;;;;;;4926136;29;20028;-74
2022/06/14 12:42:51;;;;;;;0.00;0.00;;;26.20;54.20;;;;;;4918616;29;20052;-73
2022/06/14 12:45:27;;;;;;;0.00;0.00;;;26.10;57.10;;;;;;4908045;29;20288;-73
2022/06/14 12:48:20;;;;;;;0.00;0.00;;;26.10;54.90;;;;;;4931051;29;20104;-73
2022/06/14 12:50:49;;;;;;;0.00;0.00;;;26.10;56.30;;;;;;4918497;29;20114;-73
2022/06/14 12:53:40;;;;;;;0.00;0.00;;;26.10;53.60;;;;;;4923871;29;20042;-74
2022/06/14 12:56:21;;;;;;;0.00;0.00;;;25.90;55.80;;;;;;4926842;29;20024;-75
2022/06/14 12:58:50;;;;;;;0.00;0.00;;;25.80;54.10;;;;;;4926953;29;20276;-74
2022/06/14 13:01:52;;;;;;;0.00;0.00;;;25.80;54.70;;;;;;4918607;29;20030;-74
2022/06/14 13:04:38;;;;;;;0.00;0.00;;;25.60;54.00;;;;;;4893383;29;20243;-74
2022/06/14 13:07:10;;;;;;;0.00;0.00;;;25.50;55.50;;;;;;4940330;29;20070;-74
2022/06/14 13:10:08;;;;;;;0.00;0.00;;;25.40;55.70;;;;;;4931061;29;20023;-74
2022/06/14 13:12:40;;;;;;;0.00;0.00;;;25.20;56.80;;;;;;4924932;29;20078;-74
2022/06/14 13:15:27;;;;;;;0.00;0.00;;;25.10;56.50;;;;;;4927356;29;20271;-75
2022/06/14 13:17:52;;;;;;;0.00;0.00;;;25.10;55.20;;;;;;4949921;29;20030;-74
2022/06/14 13:20:33;;;;;;;0.00;0.00;;;25.10;58.90;;;;;;4949817;28;20038;-74
2022/06/14 13:23:26;;;;;;;0.00;0.00;;;25.00;57.50;;;;;;4947843;29;20102;-73
2022/06/14 13:26:16;;;;;;;0.00;0.00;;;25.10;54.10;;;;;;4948699;29;20027;-74
2022/06/14 13:28:48;;;;;;;0.00;0.00;;;25.10;54.80;;;;;;4927979;29;20027;-77
2022/06/14 13:31:20;;;;;;;0.00;0.00;;;25.10;56.70;;;;;;4928743;29;20027;-73
2022/06/14 13:33:50;;;;;;;0.00;0.00;;;25.10;54.70;;;;;;4942025;29;20219;-74
2022/06/14 13:36:36;;;;;;;0.00;0.00;;;25.10;54.90;;;;;;4931238;29;20092;-74
2022/06/14 13:39:28;;;;;;;0.00;0.00;;;25.00;54.30;;;;;;4947658;28;20063;-73
2022/06/14 13:42:03;;;;;;;0.00;0.00;;;25.00;54.80;;;;;;4955914;29;20038;-74
2022/06/14 13:44:37;;;;;;;0.00;0.00;;;25.00;55.50;;;;;;4944264;29;20036;-74
2022/06/14 13:47:31;;;;;;;0.00;0.00;;;25.00;54.80;;;;;;4929174;29;20217;-73
2022/06/14 13:50:19;;;;;;;0.00;0.00;;;24.90;53.70;;;;;;4940257;29;20047;-73
2022/06/14 13:53:06;;;;;;;0.00;0.00;;;24.90;54.70;;;;;;4940436;29;20023;-74
2022/06/14 13:56:07;;;;;;;0.00;0.00;;;24.90;56.50;;;;;;4931531;29;20161;-74
2022/06/14 13:58:33;;;;;;;0.00;0.00;;;25.00;55.80;;;;;;4918776;29;20040;-73
2022/06/14 14:01:17;;;;;;;0.00;0.00;;;24.90;54.70;;;;;;4948148;29;20042;-73
2022/06/14 14:03:42;;;;;;;0.00;0.00;;;25.00;55.40;;;;;;4946322;29;20047;-73
2022/06/14 14:06:13;;;;;;;0.00;0.00;;;25.00;54.30;;;;;;4929229;29;20047;-73
2022/06/14 14:09:13;;;;;;;0.00;0.00;;;25.00;53.50;;;;;;4926405;29;20028;-73
2022/06/14 14:12:04;;;;;;;0.00;0.00;;;25.00;53.90;;;;;;4926819;29;20327;-73
2022/06/14 14:15:11;;;;;;;0.00;0.00;;;24.90;56.30;;;;;;4918551;29;20035;-77